<?xml version="1.0" encoding="UTF-8" standalone="no" ?>
<gpx xmlns="http://www.topografix.com/GPX/1/1" xmlns:xsi="http://www.w3.org/2001/XMLSchema-instance" xsi:schemaLocation="http://www.topografix.com/GPX/1/1 http://www.topografix.com/GPX/1/1/gpx.xsd" version="1.1" creator="VisuGPX - https://www.visugpx.com">
  <metadata>
    <name>ARQUES LA SEYNE SUR MER 1497 KM</name>
    <desc><![CDATA[Rando de Arques dans le Pas de Calais jusque La Seyne sur Mer dans le Var, 1497 km]]></desc>
  </metadata>
  <trk>
    <name><![CDATA[27 - AHUY CHAMEREY 23.8 KM]]></name>
    <extensions>
      <line xmlns="http://www.topografix.com/GPX/gpx_style/0/2">
        <color>00FF00</color>
        <width>4</width>
      </line>
    </extensions>
    <trkseg>
      <trkpt lat="47.35482" lon="5.03763">
        <ele>258</ele>
        <time>2021-11-10T15:33:02+01:00</time>
      </trkpt>
      <trkpt lat="47.35519" lon="5.0375">
        <ele>258</ele>
        <time>2021-11-10T15:33:07+01:00</time>
      </trkpt>
      <trkpt lat="47.35551" lon="5.03672">
        <ele>259</ele>
        <time>2021-11-10T15:33:12+01:00</time>
      </trkpt>
      <trkpt lat="47.35581" lon="5.03645">
        <ele>260</ele>
        <time>2021-11-10T15:33:17+01:00</time>
      </trkpt>
      <trkpt lat="47.35567" lon="5.03476">
        <ele>259</ele>
        <time>2021-11-10T15:33:22+01:00</time>
      </trkpt>
      <trkpt lat="47.35556" lon="5.03107">
        <ele>264</ele>
        <time>2021-11-10T15:33:27+01:00</time>
      </trkpt>
      <trkpt lat="47.35095" lon="5.02985">
        <ele>268</ele>
        <time>2021-11-10T15:33:32+01:00</time>
      </trkpt>
      <trkpt lat="47.34921" lon="5.02789">
        <ele>276</ele>
        <time>2021-11-10T15:33:37+01:00</time>
      </trkpt>
      <trkpt lat="47.34737" lon="5.02688">
        <ele>280</ele>
        <time>2021-11-10T15:33:42+01:00</time>
      </trkpt>
      <trkpt lat="47.34696" lon="5.02667">
        <ele>283</ele>
        <time>2021-11-10T15:33:47+01:00</time>
      </trkpt>
      <trkpt lat="47.34669" lon="5.026">
        <ele>284</ele>
        <time>2021-11-10T15:33:52+01:00</time>
      </trkpt>
      <trkpt lat="47.34559" lon="5.02518">
        <ele>287</ele>
        <time>2021-11-10T15:33:57+01:00</time>
      </trkpt>
      <trkpt lat="47.34543" lon="5.02231">
        <ele>295</ele>
        <time>2021-11-10T15:34:02+01:00</time>
      </trkpt>
      <trkpt lat="47.34485" lon="5.02136">
        <ele>300</ele>
        <time>2021-11-10T15:34:07+01:00</time>
      </trkpt>
      <trkpt lat="47.34428" lon="5.01991">
        <ele>304</ele>
        <time>2021-11-10T15:34:12+01:00</time>
      </trkpt>
      <trkpt lat="47.34339" lon="5.01926">
        <ele>299</ele>
        <time>2021-11-10T15:34:17+01:00</time>
      </trkpt>
      <trkpt lat="47.3408" lon="5.01801">
        <ele>283</ele>
        <time>2021-11-10T15:34:22+01:00</time>
      </trkpt>
      <trkpt lat="47.34231" lon="5.01345">
        <ele>300</ele>
        <time>2021-11-10T15:34:27+01:00</time>
      </trkpt>
      <trkpt lat="47.34348" lon="5.01179">
        <ele>303</ele>
        <time>2021-11-10T15:34:32+01:00</time>
      </trkpt>
      <trkpt lat="47.34522" lon="5.01061">
        <ele>301</ele>
        <time>2021-11-10T15:34:37+01:00</time>
      </trkpt>
      <trkpt lat="47.34492" lon="5.01023">
        <ele>299</ele>
        <time>2021-11-10T15:34:42+01:00</time>
      </trkpt>
      <trkpt lat="47.34538" lon="5.00814">
        <ele>302</ele>
        <time>2021-11-10T15:34:47+01:00</time>
      </trkpt>
      <trkpt lat="47.34545" lon="5.00665">
        <ele>310</ele>
        <time>2021-11-10T15:34:52+01:00</time>
      </trkpt>
      <trkpt lat="47.3446" lon="5.00482">
        <ele>320</ele>
        <time>2021-11-10T15:34:57+01:00</time>
      </trkpt>
      <trkpt lat="47.34401" lon="5.0035">
        <ele>326</ele>
        <time>2021-11-10T15:35:02+01:00</time>
      </trkpt>
      <trkpt lat="47.34295" lon="5.00266">
        <ele>327</ele>
        <time>2021-11-10T15:35:07+01:00</time>
      </trkpt>
      <trkpt lat="47.34329" lon="5.00205">
        <ele>330</ele>
        <time>2021-11-10T15:35:12+01:00</time>
      </trkpt>
      <trkpt lat="47.34382" lon="5.00066">
        <ele>336</ele>
        <time>2021-11-10T15:35:17+01:00</time>
      </trkpt>
      <trkpt lat="47.34265" lon="4.99887">
        <ele>338</ele>
        <time>2021-11-10T15:35:22+01:00</time>
      </trkpt>
      <trkpt lat="47.34206" lon="4.99765">
        <ele>340</ele>
        <time>2021-11-10T15:35:27+01:00</time>
      </trkpt>
      <trkpt lat="47.34121" lon="4.99684">
        <ele>341</ele>
        <time>2021-11-10T15:35:32+01:00</time>
      </trkpt>
      <trkpt lat="47.34215" lon="4.99535">
        <ele>345</ele>
        <time>2021-11-10T15:35:37+01:00</time>
      </trkpt>
      <trkpt lat="47.34339" lon="4.99359">
        <ele>346</ele>
        <time>2021-11-10T15:35:42+01:00</time>
      </trkpt>
      <trkpt lat="47.34437" lon="4.99237">
        <ele>349</ele>
        <time>2021-11-10T15:35:47+01:00</time>
      </trkpt>
      <trkpt lat="47.34501" lon="4.98879">
        <ele>348</ele>
        <time>2021-11-10T15:35:52+01:00</time>
      </trkpt>
      <trkpt lat="47.34572" lon="4.98547">
        <ele>360</ele>
        <time>2021-11-10T15:35:57+01:00</time>
      </trkpt>
      <trkpt lat="47.3441" lon="4.9848">
        <ele>354</ele>
        <time>2021-11-10T15:36:02+01:00</time>
      </trkpt>
      <trkpt lat="47.34323" lon="4.98382">
        <ele>354</ele>
        <time>2021-11-10T15:36:07+01:00</time>
      </trkpt>
      <trkpt lat="47.343" lon="4.98256">
        <ele>356</ele>
        <time>2021-11-10T15:36:12+01:00</time>
      </trkpt>
      <trkpt lat="47.34323" lon="4.98114">
        <ele>358</ele>
        <time>2021-11-10T15:36:17+01:00</time>
      </trkpt>
      <trkpt lat="47.34407" lon="4.97996">
        <ele>363</ele>
        <time>2021-11-10T15:36:22+01:00</time>
      </trkpt>
      <trkpt lat="47.34508" lon="4.97813">
        <ele>367</ele>
        <time>2021-11-10T15:36:27+01:00</time>
      </trkpt>
      <trkpt lat="47.34623" lon="4.97783">
        <ele>365</ele>
        <time>2021-11-10T15:36:32+01:00</time>
      </trkpt>
      <trkpt lat="47.34616" lon="4.97654">
        <ele>354</ele>
        <time>2021-11-10T15:36:37+01:00</time>
      </trkpt>
      <trkpt lat="47.34327" lon="4.97367">
        <ele>305</ele>
        <time>2021-11-10T15:36:42+01:00</time>
      </trkpt>
      <trkpt lat="47.34279" lon="4.97258">
        <ele>292</ele>
        <time>2021-11-10T15:36:47+01:00</time>
      </trkpt>
      <trkpt lat="47.3421" lon="4.9716">
        <ele>277</ele>
        <time>2021-11-10T15:36:52+01:00</time>
      </trkpt>
      <trkpt lat="47.34265" lon="4.96826">
        <ele>279</ele>
        <time>2021-11-10T15:36:57+01:00</time>
      </trkpt>
      <trkpt lat="47.34288" lon="4.96623">
        <ele>265</ele>
        <time>2021-11-10T15:37:02+01:00</time>
      </trkpt>
      <trkpt lat="47.34284" lon="4.96494">
        <ele>267</ele>
        <time>2021-11-10T15:37:07+01:00</time>
      </trkpt>
      <trkpt lat="47.34284" lon="4.96415">
        <ele>275</ele>
        <time>2021-11-10T15:37:12+01:00</time>
      </trkpt>
      <trkpt lat="47.3432" lon="4.96225">
        <ele>305</ele>
        <time>2021-11-10T15:37:17+01:00</time>
      </trkpt>
      <trkpt lat="47.34297" lon="4.962">
        <ele>295</ele>
        <time>2021-11-10T15:37:22+01:00</time>
      </trkpt>
      <trkpt lat="47.34358" lon="4.96104">
        <ele>304</ele>
        <time>2021-11-10T15:37:27+01:00</time>
      </trkpt>
      <trkpt lat="47.34373" lon="4.96009">
        <ele>307</ele>
        <time>2021-11-10T15:37:32+01:00</time>
      </trkpt>
      <trkpt lat="47.34321" lon="4.95946">
        <ele>306</ele>
        <time>2021-11-10T15:37:37+01:00</time>
      </trkpt>
      <trkpt lat="47.34304" lon="4.9578">
        <ele>313</ele>
        <time>2021-11-10T15:37:42+01:00</time>
      </trkpt>
      <trkpt lat="47.34289" lon="4.95675">
        <ele>305</ele>
        <time>2021-11-10T15:37:47+01:00</time>
      </trkpt>
      <trkpt lat="47.34314" lon="4.95501">
        <ele>299</ele>
        <time>2021-11-10T15:37:52+01:00</time>
      </trkpt>
      <trkpt lat="47.34299" lon="4.95417">
        <ele>284</ele>
        <time>2021-11-10T15:37:57+01:00</time>
      </trkpt>
      <trkpt lat="47.3431" lon="4.95306">
        <ele>308</ele>
        <time>2021-11-10T15:38:02+01:00</time>
      </trkpt>
      <trkpt lat="47.34304" lon="4.95261">
        <ele>321</ele>
        <time>2021-11-10T15:38:07+01:00</time>
      </trkpt>
      <trkpt lat="47.34343" lon="4.95221">
        <ele>338</ele>
        <time>2021-11-10T15:38:12+01:00</time>
      </trkpt>
      <trkpt lat="47.3429" lon="4.95144">
        <ele>344</ele>
        <time>2021-11-10T15:38:17+01:00</time>
      </trkpt>
      <trkpt lat="47.34249" lon="4.95129">
        <ele>338</ele>
        <time>2021-11-10T15:38:22+01:00</time>
      </trkpt>
      <trkpt lat="47.34199" lon="4.95039">
        <ele>333</ele>
        <time>2021-11-10T15:38:27+01:00</time>
      </trkpt>
      <trkpt lat="47.34189" lon="4.94927">
        <ele>335</ele>
        <time>2021-11-10T15:38:32+01:00</time>
      </trkpt>
      <trkpt lat="47.34213" lon="4.94856">
        <ele>340</ele>
        <time>2021-11-10T15:38:37+01:00</time>
      </trkpt>
      <trkpt lat="47.34178" lon="4.94734">
        <ele>337</ele>
        <time>2021-11-10T15:38:42+01:00</time>
      </trkpt>
      <trkpt lat="47.34078" lon="4.94629">
        <ele>330</ele>
        <time>2021-11-10T15:38:47+01:00</time>
      </trkpt>
      <trkpt lat="47.33966" lon="4.94505">
        <ele>323</ele>
        <time>2021-11-10T15:38:52+01:00</time>
      </trkpt>
      <trkpt lat="47.33926" lon="4.94388">
        <ele>310</ele>
        <time>2021-11-10T15:38:57+01:00</time>
      </trkpt>
      <trkpt lat="47.33895" lon="4.94234">
        <ele>269</ele>
        <time>2021-11-10T15:39:02+01:00</time>
      </trkpt>
      <trkpt lat="47.33762" lon="4.94358">
        <ele>270</ele>
        <time>2021-11-10T15:39:07+01:00</time>
      </trkpt>
      <trkpt lat="47.33644" lon="4.94054">
        <ele>283</ele>
        <time>2021-11-10T15:39:12+01:00</time>
      </trkpt>
      <trkpt lat="47.33494" lon="4.93725">
        <ele>317</ele>
        <time>2021-11-10T15:39:17+01:00</time>
      </trkpt>
      <trkpt lat="47.33309" lon="4.93308">
        <ele>353</ele>
        <time>2021-11-10T15:39:22+01:00</time>
      </trkpt>
      <trkpt lat="47.33075" lon="4.92948">
        <ele>350</ele>
        <time>2021-11-10T15:39:27+01:00</time>
      </trkpt>
      <trkpt lat="47.33093" lon="4.92871">
        <ele>350</ele>
        <time>2021-11-10T15:39:32+01:00</time>
      </trkpt>
      <trkpt lat="47.32967" lon="4.92675">
        <ele>306</ele>
        <time>2021-11-10T15:39:37+01:00</time>
      </trkpt>
      <trkpt lat="47.33089" lon="4.92572">
        <ele>319</ele>
        <time>2021-11-10T15:39:42+01:00</time>
      </trkpt>
      <trkpt lat="47.33044" lon="4.92356">
        <ele>360</ele>
        <time>2021-11-10T15:39:47+01:00</time>
      </trkpt>
      <trkpt lat="47.32877" lon="4.92526">
        <ele>352</ele>
        <time>2021-11-10T15:39:52+01:00</time>
      </trkpt>
      <trkpt lat="47.32632" lon="4.92186">
        <ele>350</ele>
        <time>2021-11-10T15:39:57+01:00</time>
      </trkpt>
      <trkpt lat="47.32685" lon="4.9214">
        <ele>356</ele>
        <time>2021-11-10T15:40:02+01:00</time>
      </trkpt>
      <trkpt lat="47.32678" lon="4.91981">
        <ele>353</ele>
        <time>2021-11-10T15:40:07+01:00</time>
      </trkpt>
      <trkpt lat="47.32566" lon="4.91862">
        <ele>331</ele>
        <time>2021-11-10T15:40:12+01:00</time>
      </trkpt>
      <trkpt lat="47.32451" lon="4.91631">
        <ele>293</ele>
        <time>2021-11-10T15:40:17+01:00</time>
      </trkpt>
      <trkpt lat="47.32349" lon="4.91639">
        <ele>283</ele>
        <time>2021-11-10T15:40:22+01:00</time>
      </trkpt>
      <trkpt lat="47.32341" lon="4.91576">
        <ele>287</ele>
        <time>2021-11-10T15:40:27+01:00</time>
      </trkpt>
      <trkpt lat="47.32424" lon="4.91525">
        <ele>300</ele>
        <time>2021-11-10T15:40:32+01:00</time>
      </trkpt>
      <trkpt lat="47.32354" lon="4.91524">
        <ele>297</ele>
        <time>2021-11-10T15:40:37+01:00</time>
      </trkpt>
      <trkpt lat="47.32426" lon="4.91448">
        <ele>316</ele>
        <time>2021-11-10T15:40:42+01:00</time>
      </trkpt>
      <trkpt lat="47.32416" lon="4.91363">
        <ele>328</ele>
        <time>2021-11-10T15:40:47+01:00</time>
      </trkpt>
      <trkpt lat="47.32338" lon="4.91313">
        <ele>314</ele>
        <time>2021-11-10T15:40:52+01:00</time>
      </trkpt>
      <trkpt lat="47.32372" lon="4.91129">
        <ele>323</ele>
        <time>2021-11-10T15:40:57+01:00</time>
      </trkpt>
      <trkpt lat="47.32271" lon="4.90998">
        <ele>303</ele>
        <time>2021-11-10T15:41:02+01:00</time>
      </trkpt>
      <trkpt lat="47.32292" lon="4.90833">
        <ele>307</ele>
        <time>2021-11-10T15:41:07+01:00</time>
      </trkpt>
      <trkpt lat="47.32328" lon="4.90718">
        <ele>309</ele>
        <time>2021-11-10T15:41:12+01:00</time>
      </trkpt>
      <trkpt lat="47.32263" lon="4.90745">
        <ele>300</ele>
        <time>2021-11-10T15:41:17+01:00</time>
      </trkpt>
      <trkpt lat="47.32202" lon="4.90707">
        <ele>292</ele>
        <time>2021-11-10T15:41:22+01:00</time>
      </trkpt>
      <trkpt lat="47.32149" lon="4.90778">
        <ele>283</ele>
        <time>2021-11-10T15:41:27+01:00</time>
      </trkpt>
      <trkpt lat="47.32052" lon="4.90796">
        <ele>270</ele>
        <time>2021-11-10T15:41:32+01:00</time>
      </trkpt>
      <trkpt lat="47.32006" lon="4.90765">
        <ele>267</ele>
        <time>2021-11-10T15:41:37+01:00</time>
      </trkpt>
      <trkpt lat="47.31959" lon="4.90734">
        <ele>266</ele>
        <time>2021-11-10T15:41:42+01:00</time>
      </trkpt>
      <trkpt lat="47.31843" lon="4.90922">
        <ele>262</ele>
        <time>2021-11-10T15:41:47+01:00</time>
      </trkpt>
      <trkpt lat="47.31842" lon="4.91054">
        <ele>261</ele>
        <time>2021-11-10T15:41:52+01:00</time>
      </trkpt>
      <trkpt lat="47.31733" lon="4.91103">
        <ele>263</ele>
        <time>2021-11-10T15:41:57+01:00</time>
      </trkpt>
      <trkpt lat="47.31773" lon="4.91196">
        <ele>265</ele>
        <time>2021-11-10T15:42:02+01:00</time>
      </trkpt>
      <trkpt lat="47.31729" lon="4.91261">
        <ele>267</ele>
        <time>2021-11-10T15:42:07+01:00</time>
      </trkpt>
      <trkpt lat="47.31611" lon="4.91229">
        <ele>272</ele>
        <time>2021-11-10T15:42:12+01:00</time>
      </trkpt>
      <trkpt lat="47.31517" lon="4.91112">
        <ele>285</ele>
        <time>2021-11-10T15:42:17+01:00</time>
      </trkpt>
      <trkpt lat="47.3135" lon="4.91139">
        <ele>296</ele>
        <time>2021-11-10T15:42:22+01:00</time>
      </trkpt>
      <trkpt lat="47.31229" lon="4.91143">
        <ele>304</ele>
        <time>2021-11-10T15:42:27+01:00</time>
      </trkpt>
      <trkpt lat="47.31076" lon="4.91007">
        <ele>324</ele>
        <time>2021-11-10T15:42:32+01:00</time>
      </trkpt>
      <trkpt lat="47.30886" lon="4.90924">
        <ele>332</ele>
        <time>2021-11-10T15:42:37+01:00</time>
      </trkpt>
      <trkpt lat="47.30354" lon="4.90924">
        <ele>344</ele>
        <time>2021-11-10T15:42:42+01:00</time>
      </trkpt>
      <trkpt lat="47.30517" lon="4.90503">
        <ele>411</ele>
        <time>2021-11-10T15:42:47+01:00</time>
      </trkpt>
      <trkpt lat="47.30428" lon="4.90477">
        <ele>420</ele>
        <time>2021-11-10T15:42:52+01:00</time>
      </trkpt>
      <trkpt lat="47.30414" lon="4.90325">
        <ele>454</ele>
        <time>2021-11-10T15:42:57+01:00</time>
      </trkpt>
      <trkpt lat="47.30383" lon="4.90194">
        <ele>502</ele>
        <time>2021-11-10T15:43:02+01:00</time>
      </trkpt>
      <trkpt lat="47.30322" lon="4.9013">
        <ele>527</ele>
        <time>2021-11-10T15:43:07+01:00</time>
      </trkpt>
      <trkpt lat="47.30186" lon="4.90029">
        <ele>542</ele>
        <time>2021-11-10T15:43:12+01:00</time>
      </trkpt>
      <trkpt lat="47.29918" lon="4.90019">
        <ele>552</ele>
        <time>2021-11-10T15:43:17+01:00</time>
      </trkpt>
      <trkpt lat="47.29803" lon="4.90064">
        <ele>555</ele>
        <time>2021-11-10T15:43:22+01:00</time>
      </trkpt>
      <trkpt lat="47.29689" lon="4.90108">
        <ele>560</ele>
        <time>2021-11-10T15:43:27+01:00</time>
      </trkpt>
      <trkpt lat="47.29363" lon="4.90307">
        <ele>575</ele>
        <time>2021-11-10T15:43:32+01:00</time>
      </trkpt>
      <trkpt lat="47.29272" lon="4.90309">
        <ele>569</ele>
        <time>2021-11-10T15:43:37+01:00</time>
      </trkpt>
      <trkpt lat="47.29177" lon="4.90411">
        <ele>564</ele>
        <time>2021-11-10T15:43:42+01:00</time>
      </trkpt>
      <trkpt lat="47.29048" lon="4.90334">
        <ele>559</ele>
        <time>2021-11-10T15:43:47+01:00</time>
      </trkpt>
      <trkpt lat="47.28886" lon="4.90308">
        <ele>540</ele>
        <time>2021-11-10T15:43:52+01:00</time>
      </trkpt>
      <trkpt lat="47.2852" lon="4.90125">
        <ele>538</ele>
        <time>2021-11-10T15:43:57+01:00</time>
      </trkpt>
      <trkpt lat="47.28264" lon="4.89905">
        <ele>540</ele>
        <time>2021-11-10T15:44:02+01:00</time>
      </trkpt>
      <trkpt lat="47.28118" lon="4.89677">
        <ele>540</ele>
        <time>2021-11-10T15:44:07+01:00</time>
      </trkpt>
      <trkpt lat="47.27984" lon="4.89587">
        <ele>536</ele>
        <time>2021-11-10T15:44:12+01:00</time>
      </trkpt>
      <trkpt lat="47.27782" lon="4.89682">
        <ele>518</ele>
        <time>2021-11-10T15:44:17+01:00</time>
      </trkpt>
      <trkpt lat="47.27656" lon="4.89687">
        <ele>507</ele>
        <time>2021-11-10T15:44:22+01:00</time>
      </trkpt>
      <trkpt lat="47.27517" lon="4.89652">
        <ele>510</ele>
        <time>2021-11-10T15:44:27+01:00</time>
      </trkpt>
      <trkpt lat="47.27352" lon="4.89748">
        <ele>522</ele>
        <time>2021-11-10T15:44:32+01:00</time>
      </trkpt>
      <trkpt lat="47.27212" lon="4.89956">
        <ele>540</ele>
        <time>2021-11-10T15:44:37+01:00</time>
      </trkpt>
      <trkpt lat="47.27048" lon="4.90045">
        <ele>546</ele>
        <time>2021-11-10T15:44:42+01:00</time>
      </trkpt>
      <trkpt lat="47.2667" lon="4.8995">
        <ele>552</ele>
        <time>2021-11-10T15:44:47+01:00</time>
      </trkpt>
      <trkpt lat="47.26406" lon="4.8993">
        <ele>550</ele>
        <time>2021-11-10T15:44:52+01:00</time>
      </trkpt>
      <trkpt lat="47.2626" lon="4.9002">
        <ele>544</ele>
        <time>2021-11-10T15:44:57+01:00</time>
      </trkpt>
      <trkpt lat="47.26215" lon="4.90193">
        <ele>559</ele>
        <time>2021-11-10T15:45:02+01:00</time>
      </trkpt>
      <trkpt lat="47.26045" lon="4.90329">
        <ele>569</ele>
        <time>2021-11-10T15:45:07+01:00</time>
      </trkpt>
      <trkpt lat="47.25604" lon="4.9042">
        <ele>556</ele>
        <time>2021-11-10T15:45:12+01:00</time>
      </trkpt>
      <trkpt lat="47.25677" lon="4.90543">
        <ele>534</ele>
        <time>2021-11-10T15:45:17+01:00</time>
      </trkpt>
      <trkpt lat="47.25596" lon="4.90829">
        <ele>505</ele>
        <time>2021-11-10T15:45:22+01:00</time>
      </trkpt>
    </trkseg>
  </trk>
</gpx>